LIEELFKJ

Guest
Details From LIEE - Cagliari Elmas
To LFKJ - Napoleon Bonaparte
Flight Number -
Tags generated
Created
Modified
Stats Distance 161 nm / 298 km
Max Altitude 5,000 ft / 1,524 m
Waypoints 3
Social Downloads 0
Likes 0
Share VATSIM

Download

Looking for another format? Having issues loading an existing format? Contact us
Advertisement - Login to hide

Notes

Basic altitude profile: - Ascent Rate: 2000ft/min - Ascent Speed: 250kts - Cruise Altitude: 5000ft - Cruise Speed: 300kts - Descent Rate: 1500ft/min - Descent Speed: 200kts

Route

LIEE MINKA LFKJ

ID Type Via Altitude Latitude Longitude Leg Dist Tot Dist Heading (true) Name
O LIEE APT - 0 ft / 0 m 39.25147˚ 9.05429˚ - 0 nm - Cagliari Elmas
MINKA FIX - 5,000 ft / 1,524 m 40.81917˚ 8.85556˚ 94 nm 94 nm 355° / 354° -
O LFKJ APT - 0 ft / 0 m 41.92289˚ 8.79959˚ 66 nm 160 nm 358° / 358° Napoleon Bonaparte

Altitude Profile

Advertisement - Login to hide

LIEE

Details ICAO LIEE (CAG)
Name Cagliari Elmas
Region Italy
Timezone Europe/Rome (UTC+2.0)
Stats Elevation 13 ft / 4 m (AMSL)
Location 39.251475° 9.054291°
Runways 1
Magnetic Variation 2.342° E

METAR

LIEE 220420Z 34003KT CAVOK 15/13 Q1013

Decode

TAF

TAF LIEE 212300Z 2200/2224 VRB04KT 9999 SCT030 BECMG 2209/2211 29010KT

Decode

Departure Runways

ID Width Length Bearing (true) Bearing (mag) Surface Threshold Offset Overrun Length
14 148 ft / 45 m 9,157 ft / 2,791 m 138.08° 135.74° Asphalt 0 ft / 0 m 187 ft / 57 m
32 148 ft / 45 m 9,157 ft / 2,791 m 318.09° 315.75° Asphalt 0 ft / 0 m 0 ft / 0 m

LFKJ

Details ICAO LFKJ (AJA)
Name Napoleon Bonaparte
Region France
Timezone Europe/Paris (UTC+2.0)
Stats Elevation 18 ft / 5 m (AMSL)
Location 41.922886° 8.799587°
Runways 2
Magnetic Variation 2.376° E

METAR

LFKJ 220430Z AUTO VRB02KT 9999 BKN013 BKN019 BKN025 16/15 Q1011 TEMPO BKN015 SCT030TCU

Decode

TAF

TAF AMD TAF AMD LFKJ 220429Z 2204/2303 VRB02KT 9999 SCT020 BKN030 TEMPO 2204/2206 5000 BR SHRA BKN012 SCT030TCU BECMG 2208/2210 24008KT BECMG 2218/2221 VRB03KT

Decode

Destination Runways

ID Width Length Bearing (true) Bearing (mag) Surface Threshold Offset Overrun Length
02 180 ft / 55 m 7,899 ft / 2,408 m 24.94° 22.56° Asphalt 0 ft / 0 m 164 ft / 50 m
10 98 ft / 30 m 3,447 ft / 1,051 m 94.35° 91.97° Concrete 0 ft / 0 m 164 ft / 50 m
20 180 ft / 55 m 7,899 ft / 2,408 m 204.95° 202.57° Asphalt 745 ft / 227 m 230 ft / 70 m
28 98 ft / 30 m 3,447 ft / 1,051 m 274.36° 271.98° Concrete 213 ft / 65 m 0 ft / 0 m

Approach Navaids

Runway Type Ident Frequency Range Bearing (true) Bearing (mag) Slope Elevation
02 Localiser AC 110.30 MHz 27 nm / 50 km 24.92° 22.54° - 18 ft / 5 m (AMSL)
02 Glidescope AC 110.30 MHz 27 nm / 50 km 24.92° 22.54° 3.00° 18 ft / 5 m (AMSL)
02 DME AC 110.30 MHz 27 nm / 50 km - - - 18 ft / 5 m (AMSL)

Popular Alternatives